Time;durP1;ratioP1;P1;durP2;ratioP2;P2;SDS_P1;SDS_P2;PMS_P1;PMS_P2;Temp;Humidity;BMP_temperature;BMP_pressure;BME280_temperature;BME280_humidity;BME280_pressure;Samples;Min_cycle;Max_cycle;Signal;HPM_P1;HPM_P2
2021/04/11 00:00:02;;;;;;;;;;;8.40;99.90;;;;;;10490109;28;20336;-68
2021/04/11 00:05:04;;;;;;;;;;;8.50;99.90;;;;;;10487659;28;19920;-68
2021/04/11 00:10:11;;;;;;;;;;;8.60;99.90;;;;;;10488640;28;20019;-69
2021/04/11 00:15:12;;;;;;;;;;;8.60;99.90;;;;;;10489929;28;19921;-68
2021/04/11 00:20:15;;;;;;;;;;;8.60;99.90;;;;;;10489644;28;19964;-68
2021/04/11 00:25:17;;;;;;;;;;;8.60;99.90;;;;;;10489198;28;19967;-68
2021/04/11 00:30:19;;;;;;;;;;;8.50;99.90;;;;;;10488460;28;19920;-68
2021/04/11 00:35:21;;;;;;;;;;;8.60;99.90;;;;;;10488521;28;19956;-68
2021/04/11 00:40:27;;;;;;;;;;;8.50;99.90;;;;;;10488775;28;19920;-68
2021/04/11 00:45:28;;;;;;;;;;;8.50;99.90;;;;;;10488377;28;20007;-68
2021/04/11 00:50:30;;;;;;;;;;;8.50;99.90;;;;;;10488137;28;20074;-68
2021/04/11 00:55:32;;;;;;;;;;;8.50;99.90;;;;;;10488075;28;19994;-68
2021/04/11 01:00:33;;;;;;;;;;;8.50;99.90;;;;;;10486962;28;19924;-68
2021/04/11 01:05:41;;;;;;;;;;;8.50;99.90;;;;;;10486952;28;19986;-68
2021/04/11 01:10:51;;;;;;;;;;;8.40;99.90;;;;;;10487998;28;20010;-68
2021/04/11 01:15:53;;;;;;;;;;;8.30;99.90;;;;;;10487230;28;20007;-68
2021/04/11 01:20:55;;;;;;;;;;;8.20;99.90;;;;;;10487094;28;20092;-68
2021/04/11 01:26:00;;;;;;;;;;;8.20;99.90;;;;;;10487236;28;20430;-68
2021/04/11 01:31:05;;;;;;;;;;;8.20;99.90;;;;;;10486006;28;19971;-68
2021/04/11 01:36:08;;;;;;;;;;;8.20;99.90;;;;;;10486402;28;20240;-68
2021/04/11 01:41:12;;;;;;;;;;;8.20;99.90;;;;;;10485900;28;20432;-68
2021/04/11 01:46:14;;;;;;;;;;;8.20;99.90;;;;;;10471235;28;20020;-68
2021/04/11 01:51:18;;;;;;;;;;;8.20;99.90;;;;;;10485064;28;19974;-68
2021/04/11 01:56:20;;;;;;;;;;;8.20;99.90;;;;;;10484982;28;19975;-68
2021/04/11 02:01:21;;;;;;;;;;;8.10;99.90;;;;;;10487603;28;20011;-68
2021/04/11 02:06:23;;;;;;;;;;;8.10;99.90;;;;;;10492929;28;19970;-68
2021/04/11 02:11:25;;;;;;;;;;;8.20;99.90;;;;;;10493501;28;20003;-68
2021/04/11 02:16:28;;;;;;;;;;;8.20;99.90;;;;;;10492723;28;20406;-68
2021/04/11 02:21:29;;;;;;;;;;;8.20;99.90;;;;;;10492324;28;19920;-68
2021/04/11 02:26:30;;;;;;;;;;;8.10;99.90;;;;;;10492783;28;20392;-68
2021/04/11 02:31:32;;;;;;;;;;;8.00;99.90;;;;;;10493260;28;19970;-68
2021/04/11 02:36:36;;;;;;;;;;;8.00;99.90;;;;;;10492687;28;19924;-68
2021/04/11 02:41:38;;;;;;;;;;;8.00;99.90;;;;;;10492848;28;20341;-68
2021/04/11 02:46:40;;;;;;;;;;;7.90;99.90;;;;;;10492886;28;19962;-68
2021/04/11 02:51:42;;;;;;;;;;;7.70;99.90;;;;;;10491470;28;19920;-68
2021/04/11 02:56:44;;;;;;;;;;;7.60;99.90;;;;;;10493210;28;19967;-68
2021/04/11 03:01:46;;;;;;;;;;;7.60;99.90;;;;;;10497480;28;19964;-68
2021/04/11 03:06:49;;;;;;;;;;;7.80;99.90;;;;;;10493986;28;20358;-68
2021/04/11 03:11:52;;;;;;;;;;;7.90;99.90;;;;;;10493370;28;20023;-68
2021/04/11 03:16:54;;;;;;;;;;;8.00;99.90;;;;;;10491971;28;19921;-68
2021/04/11 03:21:56;;;;;;;;;;;8.00;99.90;;;;;;10493568;28;19999;-69
2021/04/11 03:27:02;;;;;;;;;;;8.00;99.90;;;;;;10492363;28;19968;-68
2021/04/11 03:32:10;;;;;;;;;;;8.00;99.90;;;;;;10491603;28;19932;-69
2021/04/11 03:37:11;;;;;;;;;;;8.00;99.90;;;;;;10471492;28;20284;-68
2021/04/11 03:42:14;;;;;;;;;;;8.00;99.90;;;;;;10491974;28;19999;-68
2021/04/11 03:47:22;;;;;;;;;;;8.00;99.90;;;;;;10490936;28;19959;-68
2021/04/11 03:52:26;;;;;;;;;;;8.00;99.90;;;;;;10492128;28;19928;-69
2021/04/11 03:57:32;;;;;;;;;;;8.00;99.90;;;;;;10490071;28;20006;-68
2021/04/11 04:02:37;;;;;;;;;;;7.90;99.90;;;;;;10490726;28;20015;-68
2021/04/11 04:07:44;;;;;;;;;;;7.90;99.90;;;;;;10490848;28;20372;-68
2021/04/11 04:12:56;;;;;;;;;;;7.90;99.90;;;;;;10489054;28;19968;-68
2021/04/11 04:18:10;;;;;;;;;;;7.90;99.90;;;;;;10490238;28;20003;-69
2021/04/11 04:23:31;;;;;;;;;;;7.90;99.90;;;;;;10490508;28;20002;-68
2021/04/11 04:28:32;;;;;;;;;;;7.90;99.90;;;;;;10489500;28;19977;-68
2021/04/11 04:33:52;;;;;;;;;;;7.70;99.90;;;;;;10489664;28;20007;-68
2021/04/11 04:39:12;;;;;;;;;;;7.80;99.90;;;;;;10489444;28;20007;-68
2021/04/11 04:44:32;;;;;;;;;;;7.90;99.90;;;;;;10488647;28;20037;-68
2021/04/11 04:49:33;;;;;;;;;;;7.90;99.90;;;;;;10489295;28;20015;-68
2021/04/11 04:54:38;;;;;;;;;;;7.90;99.90;;;;;;10489176;28;20007;-68
2021/04/11 05:00:16;;;;;;;;;;;7.90;99.90;;;;;;10487121;28;20021;-68
2021/04/11 05:05:18;;;;;;;;;;;7.60;99.90;;;;;;10389625;28;19928;-68
2021/04/11 05:10:30;;;;;;;;;;;7.60;99.90;;;;;;10488421;28;19924;-68
2021/04/11 05:15:39;;;;;;;;;;;7.70;99.90;;;;;;10486093;28;20488;-69
2021/04/11 05:20:43;;;;;;;;;;;7.80;99.90;;;;;;10488453;28;20015;-68
2021/04/11 05:25:49;;;;;;;;;;;7.90;99.90;;;;;;10488312;28;20488;-68
2021/04/11 05:31:11;;;;;;;;;;;8.00;99.90;;;;;;10486639;28;20433;-68
2021/04/11 05:36:12;;;;;;;;;;;8.10;99.90;;;;;;10487500;28;20350;-68
2021/04/11 05:41:16;;;;;;;;;;;8.10;99.90;;;;;;10486949;28;20317;-69
2021/04/11 05:46:28;;;;;;;;;;;8.20;99.90;;;;;;10486632;28;20003;-69
2021/04/11 05:51:37;;;;;;;;;;;8.20;99.90;;;;;;10487060;28;20361;-69
2021/04/11 05:56:40;;;;;;;;;;;8.20;99.90;;;;;;10487479;28;19920;-69
2021/04/11 06:01:43;;;;;;;;;;;8.40;99.90;;;;;;10486369;28;20007;-69
2021/04/11 06:06:56;;;;;;;;;;;8.50;99.90;;;;;;10486374;28;19971;-69
2021/04/11 06:12:13;;;;;;;;;;;8.70;99.90;;;;;;10486012;28;20003;-69
2021/04/11 06:17:14;;;;;;;;;;;8.90;99.90;;;;;;10486042;28;20058;-69
2021/04/11 06:22:23;;;;;;;;;;;8.90;99.90;;;;;;10486558;28;19920;-69
2021/04/11 06:27:27;;;;;;;;;;;8.90;99.90;;;;;;10485880;28;19970;-70
2021/04/11 06:32:33;;;;;;;;;;;9.00;99.90;;;;;;10485559;28;19925;-69
2021/04/11 06:37:35;;;;;;;;;;;9.20;99.90;;;;;;10493500;28;19928;-69
2021/04/11 06:42:45;;;;;;;;;;;9.30;99.90;;;;;;10494575;28;20374;-69
2021/04/11 06:48:06;;;;;;;;;;;9.60;99.90;;;;;;10494118;28;19978;-69
2021/04/11 06:53:22;;;;;;;;;;;10.20;99.90;;;;;;10494416;28;20010;-69
2021/04/11 06:58:42;;;;;;;;;;;10.70;99.90;;;;;;10493607;28;19967;-69
2021/04/11 07:04:02;;;;;;;;;;;10.70;99.90;;;;;;10493487;28;19975;-69
2021/04/11 07:09:12;;;;;;;;;;;10.60;99.90;;;;;;10493156;28;19934;-69
2021/04/11 07:14:40;;;;;;;;;;;10.60;99.90;;;;;;10492914;28;19979;-69
2021/04/11 07:19:41;;;;;;;;;;;11.20;99.90;;;;;;10484927;28;19986;-69
2021/04/11 07:24:43;;;;;;;;;;;12.10;99.90;;;;;;10493761;28;19928;-69
2021/04/11 07:30:07;;;;;;;;;;;11.80;99.90;;;;;;10492278;28;20003;-69
2021/04/11 07:35:27;;;;;;;;;;;11.30;99.90;;;;;;10488150;28;20007;-69
2021/04/11 07:40:40;;;;;;;;;;;11.20;99.90;;;;;;10490251;28;20042;-69
2021/04/11 07:45:50;;;;;;;;;;;11.40;99.90;;;;;;10490280;28;19951;-69
2021/04/11 07:51:10;;;;;;;;;;;11.70;99.90;;;;;;10492311;28;20007;-70
2021/04/11 07:56:20;;;;;;;;;;;12.40;99.90;;;;;;10492417;28;20361;-69
2021/04/11 08:01:47;;;;;;;;;;;12.50;99.90;;;;;;10484691;28;20445;-70
2021/04/11 08:07:14;;;;;;;;;;;12.80;99.90;;;;;;10491147;28;20387;-69
2021/04/11 08:12:25;;;;;;;;;;;13.40;99.90;;;;;;10491092;28;20018;-70
2021/04/11 08:17:26;;;;;;;;;;;14.00;99.90;;;;;;10491263;28;20010;-69
2021/04/11 08:22:39;;;;;;;;;;;14.00;99.90;;;;;;10490774;28;19920;-70
2021/04/11 08:27:45;;;;;;;;;;;13.30;99.90;;;;;;10490401;28;20434;-70
2021/04/11 08:32:50;;;;;;;;;;;13.30;99.90;;;;;;10474078;28;20003;-70
2021/04/11 08:38:02;;;;;;;;;;;13.00;99.90;;;;;;10500302;28;19928;-69
2021/04/11 08:43:14;;;;;;;;;;;12.70;99.90;;;;;;10487949;28;19928;-70
2021/04/11 08:48:27;;;;;;;;;;;12.50;99.90;;;;;;10488252;28;19924;-70
2021/04/11 08:53:32;;;;;;;;;;;12.70;99.90;;;;;;10487618;28;20014;-70
2021/04/11 08:58:33;;;;;;;;;;;12.70;99.90;;;;;;10486641;28;19938;-70
2021/04/11 09:03:47;;;;;;;;;;;12.40;99.90;;;;;;10487165;28;20423;-70
2021/04/11 09:08:51;;;;;;;;;;;11.90;99.90;;;;;;10487118;28;19967;-70
2021/04/11 09:14:11;;;;;;;;;;;11.00;99.90;;;;;;10486394;28;19989;-70
2021/04/11 09:19:18;;;;;;;;;;;10.10;99.90;;;;;;10487527;28;19963;-69
2021/04/11 09:24:46;;;;;;;;;;;9.50;99.90;;;;;;10484850;28;20749;-69
2021/04/11 09:30:06;;;;;;;;;;;9.20;99.90;;;;;;10473253;28;20016;-69
2021/04/11 09:35:14;;;;;;;;;;;8.80;99.90;;;;;;10476913;28;19962;-70
2021/04/11 09:40:15;;;;;;;;;;;8.80;99.90;;;;;;10485937;28;19975;-69
2021/04/11 09:45:18;;;;;;;;;;;8.80;99.90;;;;;;10484968;28;19963;-69
2021/04/11 09:50:25;;;;;;;;;;;8.80;99.90;;;;;;10484696;28;19928;-69
2021/04/11 09:55:29;;;;;;;;;;;8.60;99.90;;;;;;10488095;28;20022;-69
2021/04/11 10:00:48;;;;;;;;;;;8.50;99.90;;;;;;10498601;28;20355;-69
2021/04/11 10:05:53;;;;;;;;;;;8.40;99.90;;;;;;10478277;28;19994;-69
2021/04/11 10:10:58;;;;;;;;;;;8.30;99.90;;;;;;10465132;28;19924;-69
2021/04/11 10:15:59;;;;;;;;;;;8.30;99.90;;;;;;10485819;28;20388;-69
2021/04/11 10:21:07;;;;;;;;;;;8.30;99.90;;;;;;10487013;28;20003;-69
2021/04/11 10:26:20;;;;;;;;;;;8.50;99.90;;;;;;10485120;28;19920;-62
2021/04/11 10:31:31;;;;;;;;;;;8.40;99.90;;;;;;10484406;28;19959;-61
2021/04/11 10:36:36;;;;;;;;;;;8.60;99.90;;;;;;10477673;28;20277;-61
2021/04/11 10:41:44;;;;;;;;;;;8.40;99.90;;;;;;10484783;28;19951;-61
2021/04/11 10:47:04;;;;;;;;;;;8.20;99.90;;;;;;10482992;28;19973;-61
2021/04/11 10:52:08;;;;;;;;;;;8.30;99.90;;;;;;10484640;28;19960;-61
2021/04/11 10:57:19;;;;;;;;;;;8.10;99.90;;;;;;10483969;28;19978;-61
2021/04/11 11:02:26;;;;;;;;;;;8.00;99.90;;;;;;10483719;28;20011;-61
2021/04/11 11:07:36;;;;;;;;;;;7.80;99.90;;;;;;10484240;28;19920;-61
2021/04/11 11:12:50;;;;;;;;;;;7.60;99.90;;;;;;10483499;28;19931;-61
2021/04/11 11:18:04;;;;;;;;;;;7.60;99.90;;;;;;10483549;28;19995;-61
2021/04/11 11:23:17;;;;;;;;;;;7.50;99.90;;;;;;10490424;28;19924;-61
2021/04/11 11:28:27;;;;;;;;;;;7.40;99.90;;;;;;10496840;28;19963;-61
2021/04/11 11:33:34;;;;;;;;;;;7.50;99.90;;;;;;10501090;28;20432;-61
2021/04/11 11:38:42;;;;;;;;;;;7.70;99.90;;;;;;10481532;28;19920;-61
2021/04/11 11:43:49;;;;;;;;;;;7.50;99.90;;;;;;10477871;28;20015;-61
2021/04/11 11:49:09;;;;;;;;;;;7.50;99.90;;;;;;10486620;28;19947;-61
2021/04/11 11:54:10;;;;;;;;;;;7.30;99.90;;;;;;10491528;28;19971;-61
2021/04/11 11:59:17;;;;;;;;;;;7.40;99.90;;;;;;10489259;28;20321;-61
2021/04/11 12:04:34;;;;;;;;;;;7.40;99.90;;;;;;10490717;28;20015;-61
2021/04/11 12:09:38;;;;;;;;;;;7.40;99.90;;;;;;10490553;28;20007;-61
2021/04/11 12:14:56;;;;;;;;;;;7.30;99.90;;;;;;10485889;28;20252;-62
2021/04/11 12:20:00;;;;;;;;;;;7.30;99.90;;;;;;10474930;28;19971;-61
2021/04/11 12:25:22;;;;;;;;;;;7.30;99.90;;;;;;10485547;28;19920;-61
2021/04/11 12:30:30;;;;;;;;;;;7.30;99.90;;;;;;10488221;28;19924;-61
2021/04/11 12:36:03;;;;;;;;;;;7.10;99.90;;;;;;10469568;28;19928;-61
2021/04/11 12:41:23;;;;;;;;;;;7.20;99.90;;;;;;10475988;28;19924;-61
2021/04/11 12:46:36;;;;;;;;;;;7.40;99.90;;;;;;10488804;28;19980;-61
2021/04/11 12:51:53;;;;;;;;;;;7.30;99.90;;;;;;10489163;28;20291;-61
2021/04/11 12:57:00;;;;;;;;;;;7.10;99.90;;;;;;10481798;28;20003;-61
2021/04/11 13:02:12;;;;;;;;;;;7.00;99.90;;;;;;10487194;28;20019;-61
2021/04/11 13:07:19;;;;;;;;;;;7.00;99.90;;;;;;10483349;28;19921;-61
2021/04/11 13:12:25;;;;;;;;;;;7.00;99.90;;;;;;10485476;28;19970;-61
2021/04/11 13:17:29;;;;;;;;;;;7.00;99.90;;;;;;10488216;28;19967;-61
2021/04/11 13:22:35;;;;;;;;;;;6.90;99.90;;;;;;10487786;28;20384;-61
2021/04/11 13:27:40;;;;;;;;;;;7.10;99.90;;;;;;10483650;28;19924;-61
2021/04/11 13:33:20;;;;;;;;;;;7.10;99.90;;;;;;10457560;28;19920;-61
2021/04/11 13:38:23;;;;;;;;;;;7.10;99.90;;;;;;10404021;28;20034;-61
2021/04/11 13:43:24;;;;;;;;;;;7.00;99.90;;;;;;10449175;28;19925;-61
2021/04/11 13:48:34;;;;;;;;;;;6.90;99.90;;;;;;10463517;28;20303;-61
2021/04/11 13:53:42;;;;;;;;;;;6.90;99.90;;;;;;10475146;28;19966;-61
2021/04/11 13:59:01;;;;;;;;;;;6.60;99.90;;;;;;10486156;28;20336;-61
2021/04/11 14:04:14;;;;;;;;;;;6.60;99.90;;;;;;10463221;28;20007;-61
2021/04/11 14:09:25;;;;;;;;;;;6.60;99.90;;;;;;10474742;28;20333;-61
2021/04/11 14:14:30;;;;;;;;;;;6.70;99.90;;;;;;10478003;28;20435;-61
2021/04/11 14:19:31;;;;;;;;;;;6.80;99.90;;;;;;10463479;28;19977;-62
2021/04/11 14:24:51;;;;;;;;;;;6.70;99.90;;;;;;10485806;28;20008;-61
2021/04/11 14:30:11;;;;;;;;;;;6.60;99.90;;;;;;10485326;28;20011;-61
2021/04/11 14:35:25;;;;;;;;;;;6.70;99.90;;;;;;10485665;28;19972;-61
2021/04/11 14:40:28;;;;;;;;;;;6.80;99.90;;;;;;10468532;28;20033;-61
2021/04/11 14:45:38;;;;;;;;;;;6.70;99.90;;;;;;10484963;28;19956;-61
2021/04/11 14:50:41;;;;;;;;;;;6.50;99.90;;;;;;10485170;28;20345;-61
2021/04/11 14:55:45;;;;;;;;;;;6.60;99.90;;;;;;10489054;28;20136;-61
2021/04/11 15:00:53;;;;;;;;;;;6.60;99.90;;;;;;10462052;28;20014;-61
2021/04/11 15:06:07;;;;;;;;;;;6.70;99.90;;;;;;10492623;28;20023;-61
2021/04/11 15:11:15;;;;;;;;;;;6.70;99.90;;;;;;10492189;28;20016;-61
2021/04/11 15:16:20;;;;;;;;;;;6.50;99.90;;;;;;10491244;28;20454;-61
2021/04/11 15:21:27;;;;;;;;;;;6.40;99.90;;;;;;10492712;28;20018;-61
2021/04/11 15:26:31;;;;;;;;;;;6.30;99.90;;;;;;10492683;28;19963;-61
2021/04/11 15:31:36;;;;;;;;;;;6.50;99.90;;;;;;10491983;28;19928;-61
2021/04/11 15:36:37;;;;;;;;;;;6.30;99.90;;;;;;10489693;28;20441;-62
2021/04/11 15:41:47;;;;;;;;;;;6.30;99.90;;;;;;10470401;28;20392;-61
2021/04/11 15:47:01;;;;;;;;;;;6.10;99.90;;;;;;10461973;28;19967;-61
2021/04/11 15:52:20;;;;;;;;;;;6.10;99.90;;;;;;10483607;28;20422;-61
2021/04/11 15:57:23;;;;;;;;;;;5.90;99.90;;;;;;10487513;28;20282;-61
2021/04/11 16:02:35;;;;;;;;;;;5.90;99.90;;;;;;10490579;28;19931;-61
2021/04/11 16:07:43;;;;;;;;;;;5.90;99.90;;;;;;10489181;28;19925;-61
2021/04/11 16:12:53;;;;;;;;;;;6.00;99.90;;;;;;10489239;28;20375;-61
2021/04/11 16:18:02;;;;;;;;;;;6.10;99.90;;;;;;10489406;28;20453;-61
2021/04/11 16:23:18;;;;;;;;;;;5.90;99.90;;;;;;10488611;28;20086;-61
2021/04/11 16:28:25;;;;;;;;;;;5.80;99.90;;;;;;10489465;28;20305;-61
2021/04/11 16:33:39;;;;;;;;;;;5.80;99.90;;;;;;10489895;28;20009;-61
2021/04/11 16:38:49;;;;;;;;;;;5.80;99.90;;;;;;10489135;28;20350;-61
2021/04/11 16:43:54;;;;;;;;;;;5.90;99.90;;;;;;10477136;28;20395;-61
2021/04/11 16:48:58;;;;;;;;;;;6.00;99.90;;;;;;10480698;28;19966;-61
2021/04/11 16:54:18;;;;;;;;;;;5.90;99.90;;;;;;10457402;28;19928;-61
2021/04/11 16:59:23;;;;;;;;;;;5.70;99.90;;;;;;10487694;28;19927;-61
2021/04/11 17:04:39;;;;;;;;;;;5.70;99.90;;;;;;10487604;28;20376;-61
2021/04/11 17:09:51;;;;;;;;;;;5.70;99.90;;;;;;10488267;28;19997;-61
2021/04/11 17:15:02;;;;;;;;;;;5.60;99.90;;;;;;10486778;28;19920;-61
2021/04/11 17:20:09;;;;;;;;;;;5.70;99.90;;;;;;10482076;28;20277;-61
2021/04/11 17:25:14;;;;;;;;;;;5.60;99.90;;;;;;10483980;28;19966;-61
2021/04/11 17:30:21;;;;;;;;;;;5.60;99.90;;;;;;10471666;28;19966;-61
2021/04/11 17:35:32;;;;;;;;;;;5.70;99.90;;;;;;10505399;28;19936;-61
2021/04/11 17:40:33;;;;;;;;;;;5.60;99.90;;;;;;10462153;28;20023;-61
2021/04/11 17:45:38;;;;;;;;;;;5.60;99.90;;;;;;10476347;28;19985;-61
2021/04/11 17:50:42;;;;;;;;;;;5.70;99.90;;;;;;10486983;28;19925;-61
2021/04/11 17:56:02;;;;;;;;;;;5.60;99.90;;;;;;10472535;28;20125;-60
2021/04/11 18:01:26;;;;;;;;;;;5.60;99.90;;;;;;10463870;28;20287;-60
2021/04/11 18:06:30;;;;;;;;;;;5.70;99.90;;;;;;10486172;28;20290;-61
2021/04/11 18:11:50;;;;;;;;;;;5.60;99.90;;;;;;10486077;28;19951;-61
2021/04/11 18:16:51;;;;;;;;;;;5.60;99.90;;;;;;10484719;28;20406;-61
2021/04/11 18:21:56;;;;;;;;;;;5.50;99.90;;;;;;10485799;28;19920;-61
2021/04/11 18:27:20;;;;;;;;;;;5.40;99.90;;;;;;10476813;28;20001;-61
2021/04/11 18:32:36;;;;;;;;;;;5.50;99.90;;;;;;10476733;28;19927;-61
2021/04/11 18:37:51;;;;;;;;;;;5.40;99.90;;;;;;10485485;28;19965;-61
2021/04/11 18:43:07;;;;;;;;;;;5.30;99.90;;;;;;10484470;28;19921;-61
2021/04/11 18:48:21;;;;;;;;;;;5.40;99.90;;;;;;10471749;28;19952;-61
2021/04/11 18:53:38;;;;;;;;;;;5.40;99.90;;;;;;10485482;28;19942;-61
2021/04/11 18:58:46;;;;;;;;;;;5.20;99.90;;;;;;10443942;28;19921;-61
2021/04/11 19:04:06;;;;;;;;;;;5.20;99.90;;;;;;10481001;28;19957;-68
2021/04/11 19:09:27;;;;;;;;;;;5.10;99.90;;;;;;10485041;28;19974;-67
2021/04/11 19:14:36;;;;;;;;;;;5.10;99.90;;;;;;10449785;28;19931;-68
2021/04/11 19:19:49;;;;;;;;;;;5.00;99.90;;;;;;10485285;28;20335;-67
2021/04/11 19:25:04;;;;;;;;;;;4.90;99.90;;;;;;10485950;28;19925;-68
2021/04/11 19:30:17;;;;;;;;;;;4.90;99.90;;;;;;10483475;28;19920;-68
2021/04/11 19:35:37;;;;;;;;;;;4.80;99.90;;;;;;10485256;28;20011;-68
2021/04/11 19:41:03;;;;;;;;;;;4.90;99.90;;;;;;10471653;28;20023;-68
2021/04/11 19:46:12;;;;;;;;;;;5.00;99.90;;;;;;10491027;28;20408;-68
2021/04/11 19:51:14;;;;;;;;;;;4.90;99.90;;;;;;10491089;28;19924;-68
2021/04/11 19:56:18;;;;;;;;;;;5.10;99.90;;;;;;10491389;28;19928;-67
2021/04/11 20:01:25;;;;;;;;;;;5.10;99.90;;;;;;10491828;28;20384;-68
2021/04/11 20:06:32;;;;;;;;;;;5.20;99.90;;;;;;10491176;28;19920;-68
2021/04/11 20:11:35;;;;;;;;;;;5.20;99.90;;;;;;10490224;28;20046;-68
2021/04/11 20:16:56;;;;;;;;;;;5.10;99.90;;;;;;10490478;28;20504;-68
2021/04/11 20:22:12;;;;;;;;;;;5.10;99.90;;;;;;10466068;28;20043;-68
2021/04/11 20:27:32;;;;;;;;;;;5.10;99.90;;;;;;10489782;28;19924;-68
2021/04/11 20:32:33;;;;;;;;;;;5.10;99.90;;;;;;10489592;28;20018;-67
2021/04/11 20:37:35;;;;;;;;;;;5.10;99.90;;;;;;10488882;28;20015;-67
2021/04/11 20:42:56;;;;;;;;;;;5.00;99.90;;;;;;10489782;28;20014;-67
2021/04/11 20:48:15;;;;;;;;;;;4.90;99.90;;;;;;10489240;28;20010;-67
2021/04/11 20:53:35;;;;;;;;;;;4.90;99.90;;;;;;10489078;28;20011;-67
2021/04/11 20:58:43;;;;;;;;;;;4.90;99.90;;;;;;10486565;28;20411;-67
2021/04/11 21:04:00;;;;;;;;;;;4.80;99.90;;;;;;10488923;28;19935;-67
2021/04/11 21:09:20;;;;;;;;;;;4.80;99.90;;;;;;10487877;28;19924;-67
2021/04/11 21:14:21;;;;;;;;;;;4.70;99.90;;;;;;10487809;28;19993;-67
2021/04/11 21:19:23;;;;;;;;;;;4.70;99.90;;;;;;10487908;28;20295;-67
2021/04/11 21:24:43;;;;;;;;;;;4.70;99.90;;;;;;10487958;28;19971;-67
2021/04/11 21:29:47;;;;;;;;;;;4.60;99.90;;;;;;10482657;28;20010;-67
2021/04/11 21:34:52;;;;;;;;;;;4.60;99.90;;;;;;10487756;28;20356;-67
2021/04/11 21:40:05;;;;;;;;;;;4.40;99.90;;;;;;10487307;28;19921;-67
2021/04/11 21:45:07;;;;;;;;;;;4.50;99.90;;;;;;10486200;28;20020;-67
2021/04/11 21:50:14;;;;;;;;;;;4.40;99.90;;;;;;10491878;28;19920;-68
2021/04/11 21:55:41;;;;;;;;;;;4.40;99.90;;;;;;10479036;28;20026;-67
2021/04/11 22:00:56;;;;;;;;;;;4.40;99.90;;;;;;10481444;28;20043;-67
2021/04/11 22:06:00;;;;;;;;;;;4.40;99.90;;;;;;10463809;28;20010;-67
2021/04/11 22:11:11;;;;;;;;;;;4.40;99.90;;;;;;10484666;28;20324;-67
2021/04/11 22:16:16;;;;;;;;;;;4.40;99.90;;;;;;10483474;28;19952;-67
2021/04/11 22:21:40;;;;;;;;;;;4.50;99.90;;;;;;10485387;28;19920;-67
2021/04/11 22:26:45;;;;;;;;;;;4.60;99.90;;;;;;10474121;28;19924;-67
2021/04/11 22:31:46;;;;;;;;;;;4.50;99.90;;;;;;10483876;28;20019;-67
2021/04/11 22:36:48;;;;;;;;;;;4.50;99.90;;;;;;10485430;28;19928;-67
2021/04/11 22:41:54;;;;;;;;;;;4.40;99.90;;;;;;10484854;28;19921;-67
2021/04/11 22:46:56;;;;;;;;;;;4.40;99.90;;;;;;10489698;28;19924;-67
2021/04/11 22:52:20;;;;;;;;;;;4.30;99.90;;;;;;10493206;28;19927;-67
2021/04/11 22:57:24;;;;;;;;;;;4.40;99.90;;;;;;10477754;28;20384;-67
2021/04/11 23:02:31;;;;;;;;;;;4.40;99.90;;;;;;10483445;28;20011;-67
2021/04/11 23:07:44;;;;;;;;;;;4.40;99.90;;;;;;10483310;28;20437;-67
2021/04/11 23:12:46;;;;;;;;;;;4.40;99.90;;;;;;10482135;28;20340;-67
2021/04/11 23:17:47;;;;;;;;;;;4.30;99.90;;;;;;10489280;28;19931;-67
2021/04/11 23:22:54;;;;;;;;;;;4.20;99.90;;;;;;10491740;28;20006;-67
2021/04/11 23:28:01;;;;;;;;;;;4.30;99.90;;;;;;10492255;28;19964;-67
2021/04/11 23:33:08;;;;;;;;;;;4.30;99.90;;;;;;10490264;28;19934;-67
2021/04/11 23:38:16;;;;;;;;;;;4.30;99.90;;;;;;10493334;28;20390;-67
2021/04/11 23:43:17;;;;;;;;;;;4.30;99.90;;;;;;10492015;28;20518;-67
2021/04/11 23:48:22;;;;;;;;;;;4.40;99.90;;;;;;10491434;28;20424;-68
2021/04/11 23:53:32;;;;;;;;;;;4.40;99.90;;;;;;10490235;28;20468;-67
2021/04/11 23:58:37;;;;;;;;;;;4.50;99.90;;;;;;10450235;28;19964;-67
